sensor_id;sensor_type;location;lat;lon;timestamp;temperature;humidity
57664;DHT22;43493;53.098;6.064;2023-12-14T00:00:29;5.20;99.90
57664;DHT22;43493;53.098;6.064;2023-12-14T00:02:55;5.10;99.90
57664;DHT22;43493;53.098;6.064;2023-12-14T00:05:20;5.10;99.90
57664;DHT22;43493;53.098;6.064;2023-12-14T00:07:46;5.10;99.90
57664;DHT22;43493;53.098;6.064;2023-12-14T00:10:12;5.10;99.90
57664;DHT22;43493;53.098;6.064;2023-12-14T00:12:38;5.10;99.90
57664;DHT22;43493;53.098;6.064;2023-12-14T00:15:05;5.10;99.90
57664;DHT22;43493;53.098;6.064;2023-12-14T00:17:31;5.10;99.90
57664;DHT22;43493;53.098;6.064;2023-12-14T00:19:56;5.10;99.90
57664;DHT22;43493;53.098;6.064;2023-12-14T00:22:22;5.10;99.90
57664;DHT22;43493;53.098;6.064;2023-12-14T00:24:48;5.10;99.90
57664;DHT22;43493;53.098;6.064;2023-12-14T00:27:14;5.10;99.90
57664;DHT22;43493;53.098;6.064;2023-12-14T00:29:39;5.10;99.90
57664;DHT22;43493;53.098;6.064;2023-12-14T00:32:05;5.10;99.90
57664;DHT22;43493;53.098;6.064;2023-12-14T00:34:31;5.10;99.90
57664;DHT22;43493;53.098;6.064;2023-12-14T00:36:57;5.00;99.90
57664;DHT22;43493;53.098;6.064;2023-12-14T00:39:22;5.00;99.90
57664;DHT22;43493;53.098;6.064;2023-12-14T00:41:48;5.10;99.90
57664;DHT22;43493;53.098;6.064;2023-12-14T00:44:14;5.00;99.90
57664;DHT22;43493;53.098;6.064;2023-12-14T00:46:39;5.00;99.90
57664;DHT22;43493;53.098;6.064;2023-12-14T00:49:07;5.00;99.90
57664;DHT22;43493;53.098;6.064;2023-12-14T00:51:33;5.10;99.90
57664;DHT22;43493;53.098;6.064;2023-12-14T00:53:58;5.00;99.90
57664;DHT22;43493;53.098;6.064;2023-12-14T00:56:24;5.00;99.90
57664;DHT22;43493;53.098;6.064;2023-12-14T00:58:50;5.00;99.90
57664;DHT22;43493;53.098;6.064;2023-12-14T01:01:15;5.00;99.90
57664;DHT22;43493;53.098;6.064;2023-12-14T01:03:41;5.00;99.90
57664;DHT22;43493;53.098;6.064;2023-12-14T01:06:07;5.00;99.90
57664;DHT22;43493;53.098;6.064;2023-12-14T01:08:32;4.90;99.90
57664;DHT22;43493;53.098;6.064;2023-12-14T01:10:58;4.90;99.90
57664;DHT22;43493;53.098;6.064;2023-12-14T01:13:24;4.90;99.90
57664;DHT22;43493;53.098;6.064;2023-12-14T01:15:49;4.90;99.90
57664;DHT22;43493;53.098;6.064;2023-12-14T01:18:15;4.90;99.90
57664;DHT22;43493;53.098;6.064;2023-12-14T01:20:42;4.90;99.90
57664;DHT22;43493;53.098;6.064;2023-12-14T01:23:08;4.90;99.90
57664;DHT22;43493;53.098;6.064;2023-12-14T01:25:35;4.80;99.90
57664;DHT22;43493;53.098;6.064;2023-12-14T01:28:01;4.80;99.90
57664;DHT22;43493;53.098;6.064;2023-12-14T01:30:27;4.80;99.90
57664;DHT22;43493;53.098;6.064;2023-12-14T01:32:53;4.80;99.90
57664;DHT22;43493;53.098;6.064;2023-12-14T01:35:18;4.70;99.90
57664;DHT22;43493;53.098;6.064;2023-12-14T01:37:44;4.80;99.90
57664;DHT22;43493;53.098;6.064;2023-12-14T01:40:10;4.70;99.90
57664;DHT22;43493;53.098;6.064;2023-12-14T01:42:36;4.80;99.90
57664;DHT22;43493;53.098;6.064;2023-12-14T01:45:01;4.80;99.90
57664;DHT22;43493;53.098;6.064;2023-12-14T01:47:27;4.80;99.90
57664;DHT22;43493;53.098;6.064;2023-12-14T01:49:53;4.80;99.90
57664;DHT22;43493;53.098;6.064;2023-12-14T01:52:18;4.80;99.90
57664;DHT22;43493;53.098;6.064;2023-12-14T01:54:44;4.80;99.90
57664;DHT22;43493;53.098;6.064;2023-12-14T01:57:10;4.80;99.90
57664;DHT22;43493;53.098;6.064;2023-12-14T01:59:35;4.80;99.90
57664;DHT22;43493;53.098;6.064;2023-12-14T02:02:01;4.80;99.90
57664;DHT22;43493;53.098;6.064;2023-12-14T02:04:28;4.80;99.90
57664;DHT22;43493;53.098;6.064;2023-12-14T02:06:54;4.80;99.90
57664;DHT22;43493;53.098;6.064;2023-12-14T02:09:19;4.80;99.90
57664;DHT22;43493;53.098;6.064;2023-12-14T02:11:45;4.80;99.90
57664;DHT22;43493;53.098;6.064;2023-12-14T02:14:12;4.70;99.90
57664;DHT22;43493;53.098;6.064;2023-12-14T02:16:37;4.80;99.90
57664;DHT22;43493;53.098;6.064;2023-12-14T02:19:06;4.80;99.90
57664;DHT22;43493;53.098;6.064;2023-12-14T02:21:32;4.80;99.90
57664;DHT22;43493;53.098;6.064;2023-12-14T02:23:57;4.80;99.90
57664;DHT22;43493;53.098;6.064;2023-12-14T02:26:23;4.90;99.90
57664;DHT22;43493;53.098;6.064;2023-12-14T02:28:49;4.80;99.90
57664;DHT22;43493;53.098;6.064;2023-12-14T02:31:15;4.80;99.90
57664;DHT22;43493;53.098;6.064;2023-12-14T02:33:41;4.80;99.90
57664;DHT22;43493;53.098;6.064;2023-12-14T02:36:07;4.80;99.90
57664;DHT22;43493;53.098;6.064;2023-12-14T02:38:33;4.80;99.90
57664;DHT22;43493;53.098;6.064;2023-12-14T02:40:58;4.80;99.90
57664;DHT22;43493;53.098;6.064;2023-12-14T02:43:24;4.90;99.90
57664;DHT22;43493;53.098;6.064;2023-12-14T02:45:50;4.90;99.90
57664;DHT22;43493;53.098;6.064;2023-12-14T02:48:16;4.90;99.90
57664;DHT22;43493;53.098;6.064;2023-12-14T02:50:41;4.80;99.90
57664;DHT22;43493;53.098;6.064;2023-12-14T02:53:07;4.80;99.90
57664;DHT22;43493;53.098;6.064;2023-12-14T02:55:33;4.90;99.90
57664;DHT22;43493;53.098;6.064;2023-12-14T02:57:59;4.90;99.90
57664;DHT22;43493;53.098;6.064;2023-12-14T03:00:24;4.80;99.90
57664;DHT22;43493;53.098;6.064;2023-12-14T03:02:50;4.80;99.90
57664;DHT22;43493;53.098;6.064;2023-12-14T03:05:16;4.90;99.90
57664;DHT22;43493;53.098;6.064;2023-12-14T03:07:41;4.90;99.90
57664;DHT22;43493;53.098;6.064;2023-12-14T03:10:07;4.80;99.90
57664;DHT22;43493;53.098;6.064;2023-12-14T03:12:33;4.90;99.90
57664;DHT22;43493;53.098;6.064;2023-12-14T03:14:59;4.90;99.90
57664;DHT22;43493;53.098;6.064;2023-12-14T03:17:25;4.90;99.90
57664;DHT22;43493;53.098;6.064;2023-12-14T03:19:50;4.90;99.90
57664;DHT22;43493;53.098;6.064;2023-12-14T03:22:16;4.90;99.90
57664;DHT22;43493;53.098;6.064;2023-12-14T03:24:42;4.90;99.90
57664;DHT22;43493;53.098;6.064;2023-12-14T03:27:07;4.90;99.90
57664;DHT22;43493;53.098;6.064;2023-12-14T03:29:33;4.90;99.90
57664;DHT22;43493;53.098;6.064;2023-12-14T03:32:00;4.90;99.90
57664;DHT22;43493;53.098;6.064;2023-12-14T03:34:26;4.90;99.90
57664;DHT22;43493;53.098;6.064;2023-12-14T03:36:52;4.90;99.90
57664;DHT22;43493;53.098;6.064;2023-12-14T03:39:17;4.90;99.90
57664;DHT22;43493;53.098;6.064;2023-12-14T03:41:44;4.80;99.90
57664;DHT22;43493;53.098;6.064;2023-12-14T03:44:09;4.80;99.90
57664;DHT22;43493;53.098;6.064;2023-12-14T03:46:35;4.90;99.90
57664;DHT22;43493;53.098;6.064;2023-12-14T03:49:01;4.80;99.90
57664;DHT22;43493;53.098;6.064;2023-12-14T03:51:27;4.90;99.90
57664;DHT22;43493;53.098;6.064;2023-12-14T03:53:53;4.90;99.90
57664;DHT22;43493;53.098;6.064;2023-12-14T03:56:19;4.80;99.90
57664;DHT22;43493;53.098;6.064;2023-12-14T03:58:44;4.90;99.90
57664;DHT22;43493;53.098;6.064;2023-12-14T04:01:20;4.90;99.90
57664;DHT22;43493;53.098;6.064;2023-12-14T04:03:46;4.90;99.90
57664;DHT22;43493;53.098;6.064;2023-12-14T04:06:12;4.90;99.90
57664;DHT22;43493;53.098;6.064;2023-12-14T04:08:38;4.90;99.90
57664;DHT22;43493;53.098;6.064;2023-12-14T04:11:04;4.90;99.90
57664;DHT22;43493;53.098;6.064;2023-12-14T04:13:30;4.90;99.90
57664;DHT22;43493;53.098;6.064;2023-12-14T04:15:56;4.90;99.90
57664;DHT22;43493;53.098;6.064;2023-12-14T04:18:23;4.90;99.90
57664;DHT22;43493;53.098;6.064;2023-12-14T04:20:48;4.90;99.90
57664;DHT22;43493;53.098;6.064;2023-12-14T04:23:14;4.90;99.90
57664;DHT22;43493;53.098;6.064;2023-12-14T04:25:40;4.80;99.90
57664;DHT22;43493;53.098;6.064;2023-12-14T04:28:05;4.90;99.90
57664;DHT22;43493;53.098;6.064;2023-12-14T04:30:31;4.90;99.90
57664;DHT22;43493;53.098;6.064;2023-12-14T04:32:57;4.90;99.90
57664;DHT22;43493;53.098;6.064;2023-12-14T04:35:22;4.90;99.90
57664;DHT22;43493;53.098;6.064;2023-12-14T04:37:48;5.00;99.90
57664;DHT22;43493;53.098;6.064;2023-12-14T04:40:14;4.90;99.90
57664;DHT22;43493;53.098;6.064;2023-12-14T04:42:40;4.90;99.90
57664;DHT22;43493;53.098;6.064;2023-12-14T04:45:06;4.90;99.90
57664;DHT22;43493;53.098;6.064;2023-12-14T04:47:32;4.90;99.90
57664;DHT22;43493;53.098;6.064;2023-12-14T04:49:58;4.90;99.90
57664;DHT22;43493;53.098;6.064;2023-12-14T04:52:23;4.90;99.90
57664;DHT22;43493;53.098;6.064;2023-12-14T04:54:49;4.90;99.90
57664;DHT22;43493;53.098;6.064;2023-12-14T04:57:15;4.90;99.90
57664;DHT22;43493;53.098;6.064;2023-12-14T04:59:44;4.90;99.90
57664;DHT22;43493;53.098;6.064;2023-12-14T05:02:09;4.90;99.90
57664;DHT22;43493;53.098;6.064;2023-12-14T05:04:35;4.90;99.90
57664;DHT22;43493;53.098;6.064;2023-12-14T05:07:01;4.90;99.90
57664;DHT22;43493;53.098;6.064;2023-12-14T05:09:27;4.90;99.90
57664;DHT22;43493;53.098;6.064;2023-12-14T05:11:53;4.90;99.90
57664;DHT22;43493;53.098;6.064;2023-12-14T05:14:19;4.90;99.90
57664;DHT22;43493;53.098;6.064;2023-12-14T05:16:45;4.90;99.90
57664;DHT22;43493;53.098;6.064;2023-12-14T05:19:10;4.90;99.90
57664;DHT22;43493;53.098;6.064;2023-12-14T05:21:38;4.90;99.90
57664;DHT22;43493;53.098;6.064;2023-12-14T05:24:04;4.90;99.90
57664;DHT22;43493;53.098;6.064;2023-12-14T05:26:30;4.90;99.90
57664;DHT22;43493;53.098;6.064;2023-12-14T05:28:55;4.90;99.90
57664;DHT22;43493;53.098;6.064;2023-12-14T05:31:21;4.90;99.90
57664;DHT22;43493;53.098;6.064;2023-12-14T05:33:47;4.90;99.90
57664;DHT22;43493;53.098;6.064;2023-12-14T05:36:12;4.90;99.90
57664;DHT22;43493;53.098;6.064;2023-12-14T05:38:38;4.90;99.90
57664;DHT22;43493;53.098;6.064;2023-12-14T05:41:04;4.90;99.90
57664;DHT22;43493;53.098;6.064;2023-12-14T05:43:30;4.90;99.90
57664;DHT22;43493;53.098;6.064;2023-12-14T05:45:56;4.80;99.90
57664;DHT22;43493;53.098;6.064;2023-12-14T05:48:22;4.90;99.90
57664;DHT22;43493;53.098;6.064;2023-12-14T05:50:48;4.90;99.90
57664;DHT22;43493;53.098;6.064;2023-12-14T05:53:14;4.90;99.90
57664;DHT22;43493;53.098;6.064;2023-12-14T05:55:39;4.90;99.90
57664;DHT22;43493;53.098;6.064;2023-12-14T05:58:06;4.90;99.90
57664;DHT22;43493;53.098;6.064;2023-12-14T06:00:33;5.00;99.90
57664;DHT22;43493;53.098;6.064;2023-12-14T06:03:00;4.90;99.90
57664;DHT22;43493;53.098;6.064;2023-12-14T06:05:26;4.90;99.90
57664;DHT22;43493;53.098;6.064;2023-12-14T06:07:51;4.90;99.90
57664;DHT22;43493;53.098;6.064;2023-12-14T06:10:17;4.90;99.90
57664;DHT22;43493;53.098;6.064;2023-12-14T06:12:43;4.90;99.90
57664;DHT22;43493;53.098;6.064;2023-12-14T06:15:09;4.90;99.90
57664;DHT22;43493;53.098;6.064;2023-12-14T06:17:36;4.90;99.90
57664;DHT22;43493;53.098;6.064;2023-12-14T06:20:05;4.90;99.90
57664;DHT22;43493;53.098;6.064;2023-12-14T06:22:31;4.90;99.90
57664;DHT22;43493;53.098;6.064;2023-12-14T06:24:56;5.00;99.90
57664;DHT22;43493;53.098;6.064;2023-12-14T06:27:22;5.00;99.90
57664;DHT22;43493;53.098;6.064;2023-12-14T06:29:52;5.00;99.90
57664;DHT22;43493;53.098;6.064;2023-12-14T06:32:18;5.00;99.90
57664;DHT22;43493;53.098;6.064;2023-12-14T06:34:43;5.00;99.90
57664;DHT22;43493;53.098;6.064;2023-12-14T06:37:09;5.00;99.90
57664;DHT22;43493;53.098;6.064;2023-12-14T06:39:36;5.00;99.90
57664;DHT22;43493;53.098;6.064;2023-12-14T06:42:01;5.00;99.90
57664;DHT22;43493;53.098;6.064;2023-12-14T06:44:27;5.00;99.90
57664;DHT22;43493;53.098;6.064;2023-12-14T06:46:54;5.00;99.90
57664;DHT22;43493;53.098;6.064;2023-12-14T06:49:20;4.90;99.90
57664;DHT22;43493;53.098;6.064;2023-12-14T06:51:46;4.90;99.90
57664;DHT22;43493;53.098;6.064;2023-12-14T06:54:12;5.00;99.90
57664;DHT22;43493;53.098;6.064;2023-12-14T06:56:38;4.90;99.90
57664;DHT22;43493;53.098;6.064;2023-12-14T06:59:03;4.90;99.90
57664;DHT22;43493;53.098;6.064;2023-12-14T07:01:29;4.90;99.90
57664;DHT22;43493;53.098;6.064;2023-12-14T07:03:55;4.90;99.90
57664;DHT22;43493;53.098;6.064;2023-12-14T07:06:20;4.90;99.90
57664;DHT22;43493;53.098;6.064;2023-12-14T07:08:46;4.90;99.90
57664;DHT22;43493;53.098;6.064;2023-12-14T07:11:13;5.00;99.90
57664;DHT22;43493;53.098;6.064;2023-12-14T07:13:39;5.00;99.90
57664;DHT22;43493;53.098;6.064;2023-12-14T07:16:14;5.00;99.90
57664;DHT22;43493;53.098;6.064;2023-12-14T07:18:42;5.00;99.90
57664;DHT22;43493;53.098;6.064;2023-12-14T07:21:09;5.00;99.90
57664;DHT22;43493;53.098;6.064;2023-12-14T07:23:35;5.00;99.90
57664;DHT22;43493;53.098;6.064;2023-12-14T07:26:01;5.00;99.90
57664;DHT22;43493;53.098;6.064;2023-12-14T07:28:28;5.10;99.90
57664;DHT22;43493;53.098;6.064;2023-12-14T07:30:54;5.10;99.90
57664;DHT22;43493;53.098;6.064;2023-12-14T07:33:20;5.20;99.90
57664;DHT22;43493;53.098;6.064;2023-12-14T07:35:46;5.10;99.90
57664;DHT22;43493;53.098;6.064;2023-12-14T07:38:12;5.20;99.90
57664;DHT22;43493;53.098;6.064;2023-12-14T07:40:38;5.20;99.90
57664;DHT22;43493;53.098;6.064;2023-12-14T07:43:07;5.20;99.90
57664;DHT22;43493;53.098;6.064;2023-12-14T07:45:33;5.20;99.90
57664;DHT22;43493;53.098;6.064;2023-12-14T07:47:59;5.20;99.90
57664;DHT22;43493;53.098;6.064;2023-12-14T07:50:26;5.20;99.90
57664;DHT22;43493;53.098;6.064;2023-12-14T07:52:52;5.30;99.90
57664;DHT22;43493;53.098;6.064;2023-12-14T07:55:18;5.20;99.90
57664;DHT22;43493;53.098;6.064;2023-12-14T07:57:44;5.30;99.90
57664;DHT22;43493;53.098;6.064;2023-12-14T08:00:10;5.20;99.90
57664;DHT22;43493;53.098;6.064;2023-12-14T08:02:36;5.20;99.90
57664;DHT22;43493;53.098;6.064;2023-12-14T08:05:02;5.20;99.90
57664;DHT22;43493;53.098;6.064;2023-12-14T08:07:28;5.20;99.90
57664;DHT22;43493;53.098;6.064;2023-12-14T08:09:58;5.30;99.90
57664;DHT22;43493;53.098;6.064;2023-12-14T08:12:24;5.20;99.90
57664;DHT22;43493;53.098;6.064;2023-12-14T08:14:50;5.20;99.90
57664;DHT22;43493;53.098;6.064;2023-12-14T08:17:16;5.30;99.90
57664;DHT22;43493;53.098;6.064;2023-12-14T08:19:42;5.30;99.90
57664;DHT22;43493;53.098;6.064;2023-12-14T08:22:08;5.30;99.90
57664;DHT22;43493;53.098;6.064;2023-12-14T08:24:37;5.30;99.90
57664;DHT22;43493;53.098;6.064;2023-12-14T08:27:02;5.30;99.90
57664;DHT22;43493;53.098;6.064;2023-12-14T08:29:28;5.30;99.90
57664;DHT22;43493;53.098;6.064;2023-12-14T08:31:54;5.40;99.90
57664;DHT22;43493;53.098;6.064;2023-12-14T08:34:23;5.40;99.90
57664;DHT22;43493;53.098;6.064;2023-12-14T08:36:49;5.40;99.90
57664;DHT22;43493;53.098;6.064;2023-12-14T08:39:15;5.50;99.90
57664;DHT22;43493;53.098;6.064;2023-12-14T08:41:40;5.50;99.90
57664;DHT22;43493;53.098;6.064;2023-12-14T08:44:07;5.50;99.90
57664;DHT22;43493;53.098;6.064;2023-12-14T08:46:44;5.50;99.90
57664;DHT22;43493;53.098;6.064;2023-12-14T08:49:11;5.60;99.90
57664;DHT22;43493;53.098;6.064;2023-12-14T08:51:37;5.50;99.90
57664;DHT22;43493;53.098;6.064;2023-12-14T08:54:04;5.50;99.90
57664;DHT22;43493;53.098;6.064;2023-12-14T08:56:30;5.50;99.90
57664;DHT22;43493;53.098;6.064;2023-12-14T08:58:55;5.60;99.90
57664;DHT22;43493;53.098;6.064;2023-12-14T09:01:23;5.50;99.90
57664;DHT22;43493;53.098;6.064;2023-12-14T09:03:49;5.60;99.90
57664;DHT22;43493;53.098;6.064;2023-12-14T09:06:16;5.60;99.90
57664;DHT22;43493;53.098;6.064;2023-12-14T09:08:42;5.60;99.90
57664;DHT22;43493;53.098;6.064;2023-12-14T09:11:08;5.60;99.90
57664;DHT22;43493;53.098;6.064;2023-12-14T09:13:34;5.50;99.90
57664;DHT22;43493;53.098;6.064;2023-12-14T09:15:59;5.50;99.90
57664;DHT22;43493;53.098;6.064;2023-12-14T09:18:25;5.50;99.90
57664;DHT22;43493;53.098;6.064;2023-12-14T09:20:51;5.50;99.90
57664;DHT22;43493;53.098;6.064;2023-12-14T09:23:17;5.40;99.90
57664;DHT22;43493;53.098;6.064;2023-12-14T09:25:44;5.50;99.90
57664;DHT22;43493;53.098;6.064;2023-12-14T09:28:10;5.40;99.90
57664;DHT22;43493;53.098;6.064;2023-12-14T09:30:36;5.40;99.90
57664;DHT22;43493;53.098;6.064;2023-12-14T09:33:02;5.50;99.90
57664;DHT22;43493;53.098;6.064;2023-12-14T09:35:27;5.60;99.90
57664;DHT22;43493;53.098;6.064;2023-12-14T09:37:53;5.60;99.90
57664;DHT22;43493;53.098;6.064;2023-12-14T09:40:19;5.60;99.90
57664;DHT22;43493;53.098;6.064;2023-12-14T09:42:45;5.60;99.90
57664;DHT22;43493;53.098;6.064;2023-12-14T09:45:11;5.70;99.90
57664;DHT22;43493;53.098;6.064;2023-12-14T09:47:38;5.70;99.90
57664;DHT22;43493;53.098;6.064;2023-12-14T09:50:05;5.70;99.90
57664;DHT22;43493;53.098;6.064;2023-12-14T09:52:31;5.70;99.90
57664;DHT22;43493;53.098;6.064;2023-12-14T09:54:59;5.70;99.90
57664;DHT22;43493;53.098;6.064;2023-12-14T09:57:25;5.70;99.90
57664;DHT22;43493;53.098;6.064;2023-12-14T09:59:53;5.70;99.90
57664;DHT22;43493;53.098;6.064;2023-12-14T10:02:18;5.70;99.90
57664;DHT22;43493;53.098;6.064;2023-12-14T10:04:46;5.80;99.90
57664;DHT22;43493;53.098;6.064;2023-12-14T10:07:12;5.70;99.90
57664;DHT22;43493;53.098;6.064;2023-12-14T10:09:38;5.70;99.90
57664;DHT22;43493;53.098;6.064;2023-12-14T10:12:08;5.70;99.90
57664;DHT22;43493;53.098;6.064;2023-12-14T10:14:35;5.70;99.90
57664;DHT22;43493;53.098;6.064;2023-12-14T10:17:20;5.60;99.90
57664;DHT22;43493;53.098;6.064;2023-12-14T10:19:47;5.60;99.90
57664;DHT22;43493;53.098;6.064;2023-12-14T10:22:17;5.60;99.90
57664;DHT22;43493;53.098;6.064;2023-12-14T10:24:47;5.60;99.90
57664;DHT22;43493;53.098;6.064;2023-12-14T10:27:14;5.60;99.90
57664;DHT22;43493;53.098;6.064;2023-12-14T10:29:41;5.60;99.90
57664;DHT22;43493;53.098;6.064;2023-12-14T10:32:08;5.70;99.90
57664;DHT22;43493;53.098;6.064;2023-12-14T10:34:35;5.70;99.90
57664;DHT22;43493;53.098;6.064;2023-12-14T10:37:05;5.80;99.90
57664;DHT22;43493;53.098;6.064;2023-12-14T10:39:35;5.80;99.90
57664;DHT22;43493;53.098;6.064;2023-12-14T10:42:03;5.80;99.90
57664;DHT22;43493;53.098;6.064;2023-12-14T10:44:32;5.90;99.90
57664;DHT22;43493;53.098;6.064;2023-12-14T10:47:00;5.90;99.90
57664;DHT22;43493;53.098;6.064;2023-12-14T10:49:29;6.00;99.90
57664;DHT22;43493;53.098;6.064;2023-12-14T10:51:57;6.00;99.90
57664;DHT22;43493;53.098;6.064;2023-12-14T10:54:24;6.00;99.90
57664;DHT22;43493;53.098;6.064;2023-12-14T10:56:55;6.10;99.90
57664;DHT22;43493;53.098;6.064;2023-12-14T10:59:23;6.10;99.90
57664;DHT22;43493;53.098;6.064;2023-12-14T11:01:53;6.10;99.90
57664;DHT22;43493;53.098;6.064;2023-12-14T11:04:20;6.10;99.90
57664;DHT22;43493;53.098;6.064;2023-12-14T11:06:46;6.10;99.90
57664;DHT22;43493;53.098;6.064;2023-12-14T11:09:17;6.20;99.90
57664;DHT22;43493;53.098;6.064;2023-12-14T11:14:19;6.20;99.90
57664;DHT22;43493;53.098;6.064;2023-12-14T11:16:47;6.20;99.90
57664;DHT22;43493;53.098;6.064;2023-12-14T11:19:27;6.30;99.90
57664;DHT22;43493;53.098;6.064;2023-12-14T11:24:23;6.30;99.90
57664;DHT22;43493;53.098;6.064;2023-12-14T11:26:50;6.30;99.90
57664;DHT22;43493;53.098;6.064;2023-12-14T11:29:17;6.30;99.90
57664;DHT22;43493;53.098;6.064;2023-12-14T11:31:43;6.30;99.90
57664;DHT22;43493;53.098;6.064;2023-12-14T11:34:09;6.20;99.90
57664;DHT22;43493;53.098;6.064;2023-12-14T11:36:34;6.20;99.90
57664;DHT22;43493;53.098;6.064;2023-12-14T11:39:02;6.30;99.90
57664;DHT22;43493;53.098;6.064;2023-12-14T11:41:29;6.30;99.90
57664;DHT22;43493;53.098;6.064;2023-12-14T11:43:56;6.20;99.90
57664;DHT22;43493;53.098;6.064;2023-12-14T11:46:22;6.30;99.90
57664;DHT22;43493;53.098;6.064;2023-12-14T11:48:48;6.30;99.90
57664;DHT22;43493;53.098;6.064;2023-12-14T11:51:17;6.30;99.90
57664;DHT22;43493;53.098;6.064;2023-12-14T11:53:46;6.30;99.90
57664;DHT22;43493;53.098;6.064;2023-12-14T11:56:14;6.30;99.90
57664;DHT22;43493;53.098;6.064;2023-12-14T11:58:44;6.30;99.90
57664;DHT22;43493;53.098;6.064;2023-12-14T12:01:12;6.30;99.90
57664;DHT22;43493;53.098;6.064;2023-12-14T12:03:38;6.30;99.90
57664;DHT22;43493;53.098;6.064;2023-12-14T12:06:04;6.30;99.90
57664;DHT22;43493;53.098;6.064;2023-12-14T12:08:30;6.30;99.90
57664;DHT22;43493;53.098;6.064;2023-12-14T12:10:57;6.30;99.90
57664;DHT22;43493;53.098;6.064;2023-12-14T12:13:22;6.30;99.90
57664;DHT22;43493;53.098;6.064;2023-12-14T12:15:48;6.30;99.90
57664;DHT22;43493;53.098;6.064;2023-12-14T12:18:16;6.30;99.90
57664;DHT22;43493;53.098;6.064;2023-12-14T12:20:42;6.30;99.90
57664;DHT22;43493;53.098;6.064;2023-12-14T12:23:08;6.30;99.90
57664;DHT22;43493;53.098;6.064;2023-12-14T12:25:34;6.30;99.90
57664;DHT22;43493;53.098;6.064;2023-12-14T12:28:00;6.30;99.90
57664;DHT22;43493;53.098;6.064;2023-12-14T12:30:27;6.40;99.90
57664;DHT22;43493;53.098;6.064;2023-12-14T12:32:53;6.40;99.90
57664;DHT22;43493;53.098;6.064;2023-12-14T12:35:21;6.40;99.90
57664;DHT22;43493;53.098;6.064;2023-12-14T12:37:47;6.40;99.90
57664;DHT22;43493;53.098;6.064;2023-12-14T12:40:20;6.40;99.90
57664;DHT22;43493;53.098;6.064;2023-12-14T12:42:46;6.40;99.90
57664;DHT22;43493;53.098;6.064;2023-12-14T12:45:14;6.40;99.90
57664;DHT22;43493;53.098;6.064;2023-12-14T12:47:42;6.40;99.90
57664;DHT22;43493;53.098;6.064;2023-12-14T12:50:08;6.40;99.90
57664;DHT22;43493;53.098;6.064;2023-12-14T12:52:33;6.40;99.90
57664;DHT22;43493;53.098;6.064;2023-12-14T12:54:59;6.40;99.90
57664;DHT22;43493;53.098;6.064;2023-12-14T12:57:25;6.40;99.90
57664;DHT22;43493;53.098;6.064;2023-12-14T12:59:51;6.40;99.90
57664;DHT22;43493;53.098;6.064;2023-12-14T13:02:17;6.40;99.90
57664;DHT22;43493;53.098;6.064;2023-12-14T13:04:43;6.40;99.90
57664;DHT22;43493;53.098;6.064;2023-12-14T13:07:09;6.40;99.90
57664;DHT22;43493;53.098;6.064;2023-12-14T13:09:35;6.50;99.90
57664;DHT22;43493;53.098;6.064;2023-12-14T13:12:00;6.50;99.90
57664;DHT22;43493;53.098;6.064;2023-12-14T13:14:26;6.50;99.90
57664;DHT22;43493;53.098;6.064;2023-12-14T13:16:52;6.50;99.90
57664;DHT22;43493;53.098;6.064;2023-12-14T13:19:17;6.50;99.90
57664;DHT22;43493;53.098;6.064;2023-12-14T13:21:43;6.50;99.90
57664;DHT22;43493;53.098;6.064;2023-12-14T13:24:09;6.50;99.90
57664;DHT22;43493;53.098;6.064;2023-12-14T13:26:34;6.40;99.90
57664;DHT22;43493;53.098;6.064;2023-12-14T13:29:01;6.40;99.90
57664;DHT22;43493;53.098;6.064;2023-12-14T13:31:27;6.40;99.90
57664;DHT22;43493;53.098;6.064;2023-12-14T13:33:53;6.40;99.90
57664;DHT22;43493;53.098;6.064;2023-12-14T13:36:19;6.40;99.90
57664;DHT22;43493;53.098;6.064;2023-12-14T13:38:45;6.40;99.90
57664;DHT22;43493;53.098;6.064;2023-12-14T13:41:11;6.40;99.90
57664;DHT22;43493;53.098;6.064;2023-12-14T13:43:36;6.40;99.90
57664;DHT22;43493;53.098;6.064;2023-12-14T13:46:03;6.40;99.90
57664;DHT22;43493;53.098;6.064;2023-12-14T13:48:28;6.40;99.90
57664;DHT22;43493;53.098;6.064;2023-12-14T13:50:55;6.40;99.90
57664;DHT22;43493;53.098;6.064;2023-12-14T13:53:21;6.40;99.90
57664;DHT22;43493;53.098;6.064;2023-12-14T13:55:47;6.40;99.90
57664;DHT22;43493;53.098;6.064;2023-12-14T13:58:16;6.40;99.90
57664;DHT22;43493;53.098;6.064;2023-12-14T14:00:43;6.30;99.90
57664;DHT22;43493;53.098;6.064;2023-12-14T14:03:09;6.30;99.90
57664;DHT22;43493;53.098;6.064;2023-12-14T14:05:34;6.30;99.90
57664;DHT22;43493;53.098;6.064;2023-12-14T14:08:00;6.40;99.90
57664;DHT22;43493;53.098;6.064;2023-12-14T14:10:26;6.40;99.90
57664;DHT22;43493;53.098;6.064;2023-12-14T14:12:52;6.40;99.90
57664;DHT22;43493;53.098;6.064;2023-12-14T14:15:18;6.40;99.90
57664;DHT22;43493;53.098;6.064;2023-12-14T14:17:46;6.50;99.90
57664;DHT22;43493;53.098;6.064;2023-12-14T14:20:13;6.40;99.90
57664;DHT22;43493;53.098;6.064;2023-12-14T14:22:39;6.40;99.90
57664;DHT22;43493;53.098;6.064;2023-12-14T14:25:05;6.40;99.90
57664;DHT22;43493;53.098;6.064;2023-12-14T14:27:32;6.30;99.90
57664;DHT22;43493;53.098;6.064;2023-12-14T14:29:58;6.30;99.90
57664;DHT22;43493;53.098;6.064;2023-12-14T14:32:24;6.30;99.90
57664;DHT22;43493;53.098;6.064;2023-12-14T14:34:50;6.20;99.90
57664;DHT22;43493;53.098;6.064;2023-12-14T14:37:16;6.10;99.90
57664;DHT22;43493;53.098;6.064;2023-12-14T14:39:42;6.10;99.90
57664;DHT22;43493;53.098;6.064;2023-12-14T14:42:09;6.10;99.90
57664;DHT22;43493;53.098;6.064;2023-12-14T14:44:35;6.00;99.90
57664;DHT22;43493;53.098;6.064;2023-12-14T14:47:02;6.00;99.90
57664;DHT22;43493;53.098;6.064;2023-12-14T14:49:28;6.00;99.90
57664;DHT22;43493;53.098;6.064;2023-12-14T14:51:54;5.90;99.90
57664;DHT22;43493;53.098;6.064;2023-12-14T14:54:20;5.90;99.90
57664;DHT22;43493;53.098;6.064;2023-12-14T14:56:46;5.90;99.90
57664;DHT22;43493;53.098;6.064;2023-12-14T14:59:12;5.80;99.90
57664;DHT22;43493;53.098;6.064;2023-12-14T15:01:41;5.90;99.90
57664;DHT22;43493;53.098;6.064;2023-12-14T15:04:07;5.80;99.90
57664;DHT22;43493;53.098;6.064;2023-12-14T15:06:33;5.90;99.90
57664;DHT22;43493;53.098;6.064;2023-12-14T15:09:00;5.90;99.90
57664;DHT22;43493;53.098;6.064;2023-12-14T15:11:25;5.90;99.90
57664;DHT22;43493;53.098;6.064;2023-12-14T15:13:51;5.90;99.90
57664;DHT22;43493;53.098;6.064;2023-12-14T15:16:17;5.90;99.90
57664;DHT22;43493;53.098;6.064;2023-12-14T15:18:50;5.80;99.90
57664;DHT22;43493;53.098;6.064;2023-12-14T15:21:16;5.80;99.90
57664;DHT22;43493;53.098;6.064;2023-12-14T15:23:43;5.80;99.90
57664;DHT22;43493;53.098;6.064;2023-12-14T15:26:09;5.80;99.90
57664;DHT22;43493;53.098;6.064;2023-12-14T15:28:37;5.80;99.90
57664;DHT22;43493;53.098;6.064;2023-12-14T15:31:03;5.80;99.90
57664;DHT22;43493;53.098;6.064;2023-12-14T15:33:29;5.80;99.90
57664;DHT22;43493;53.098;6.064;2023-12-14T15:35:54;5.70;99.90
57664;DHT22;43493;53.098;6.064;2023-12-14T15:38:20;5.70;99.90
57664;DHT22;43493;53.098;6.064;2023-12-14T15:40:46;5.70;99.90
57664;DHT22;43493;53.098;6.064;2023-12-14T15:43:11;5.70;99.90